Terminal Aerodrome Forecast
Issued by NWS Charleston, WV

Home | Current Version | Previous Version | Text Only | Print | Product List | Glossary On
Versions: 1 2 3 4 5 6 7 8 9 10 11 12 13 14 15 16 17 18 19 20 21
000
FTUS41 KRLX 270552
TAFBKW
TAF
KBKW 270552Z 2706/2806 18005KT P6SM BKN050
     FM270700 20005KT P6SM SHRA VCTS BKN050CB
     FM271000 21004KT P6SM BKN050
     FM271200 VRB03KT P6SM BKN015
     FM271600 24006KT P6SM BKN025
     FM271800 25005KT P6SM BKN035
     FM272300 22004KT P6SM VCTS BKN035CB
     FM280200 VRB03KT P6SM SCT035=

USA.gov is the U.S. government's official web portal to all federal, state and local government web resources and services.